Time;durP1;ratioP1;P1;durP2;ratioP2;P2;SDS_P1;SDS_P2;PMS_P1;PMS_P2;Temp;Humidity;BMP_temperature;BMP_pressure;BME280_temperature;BME280_humidity;BME280_pressure;Samples;Min_cycle;Max_cycle;Signal;HPM_P1;HPM_P2
2022/10/02 00:02:30;;;;;;;8.82;2.45;;;12.20;99.90;;;;;;4998610;28;20139;-73
2022/10/02 00:04:56;;;;;;;12.20;2.50;;;;;;;;;;5033729;28;20139;-73
2022/10/02 00:07:26;;;;;;;10.65;3.15;;;;;;;;;;5033295;28;20574;-73
2022/10/02 00:10:02;;;;;;;14.82;3.15;;;12.20;99.90;;;;;;5033392;28;20034;-73
2022/10/02 00:12:33;;;;;;;9.52;2.38;;;12.20;99.90;;;;;;4999871;28;20090;-72
2022/10/02 00:15:11;;;;;;;12.45;2.50;;;;;;;;;;5033645;28;20041;-72
2022/10/02 00:17:41;;;;;;;14.65;3.03;;;12.30;99.90;;;;;;5000092;28;20187;-73
2022/10/02 00:20:17;;;;;;;17.25;3.03;;;12.10;99.90;;;;;;5015876;28;20041;-73
2022/10/02 00:23:06;;;;;;;14.23;3.22;;;;;;;;;;4999707;28;20398;-72
2022/10/02 00:25:35;;;;;;;16.38;3.47;;;;;;;;;;5033337;28;20569;-73
2022/10/02 00:28:39;;;;;;;17.95;2.55;;;12.20;99.90;;;;;;4999367;28;20045;-74
2022/10/02 00:31:23;;;;;;;;;;;12.40;99.90;;;;;;5033936;28;20087;-73
2022/10/02 00:33:49;;;;;;;;;;;;;;;;;;5015183;28;20303;-73
2022/10/02 00:36:37;;;;;;;14.20;2.50;;;;;;;;;;5015247;28;19916;-73
2022/10/02 00:39:19;;;;;;;13.82;2.65;;;;;;;;;;5015419;28;20053;-73
2022/10/02 00:41:48;;;;;;;13.65;2.88;;;;;;;;;;4998946;28;20441;-72
2022/10/02 00:44:40;;;;;;;10.90;2.47;;;12.30;99.90;;;;;;5033070;28;20042;-73
2022/10/02 00:47:20;;;;;;;15.88;3.25;;;12.30;99.90;;;;;;5033082;28;20041;-72
2022/10/02 00:50:16;;;;;;;13.50;3.42;;;12.40;99.90;;;;;;5032984;28;20073;-72
2022/10/02 00:53:06;;;;;;;20.63;3.22;;;12.50;99.90;;;;;;5033021;28;20045;-73
2022/10/02 00:55:44;;;;;;;14.30;2.78;;;12.30;99.90;;;;;;5013039;28;20052;-73
2022/10/02 00:58:12;;;;;;;16.10;2.45;;;;;;;;;;5013375;28;20073;-73
2022/10/02 01:00:43;;;;;;;17.50;3.22;;;;;;;;;;5013123;28;20045;-73
2022/10/02 01:03:22;;;;;;;21.65;3.33;;;;;;;;;;4979299;28;20496;-73
2022/10/02 01:05:48;;;;;;;11.75;2.63;;;;;;;;;;4993473;28;20046;-73
2022/10/02 01:08:18;;;;;;;14.57;2.83;;;12.40;99.90;;;;;;5012134;28;20045;-73
2022/10/02 01:10:44;;;;;;;15.00;2.72;;;12.10;99.90;;;;;;4995044;28;20052;-71
2022/10/02 01:13:31;;;;;;;20.20;3.53;;;;;;;;;;5013050;28;20099;-73
2022/10/02 01:16:00;;;;;;;13.20;2.67;;;;;;;;;;5021898;28;20037;-73
2022/10/02 01:18:27;;;;;;;17.15;3.65;;;;;;;;;;5032130;28;20049;-73
2022/10/02 01:21:00;;;;;;;11.35;2.55;;;12.40;99.90;;;;;;5032193;28;20056;-73
2022/10/02 01:23:46;;;;;;;13.75;2.50;;;12.20;99.90;;;;;;5015284;28;20049;-73
2022/10/02 01:26:17;;;;;;;14.98;2.70;;;12.20;99.90;;;;;;5014666;28;20045;-73
2022/10/02 01:28:43;;;;;;;16.55;3.13;;;;;;;;;;5032356;28;20046;-74
2022/10/02 01:31:12;;;;;;;18.35;3.20;;;12.30;99.90;;;;;;5032082;28;20095;-73
2022/10/02 01:33:40;;;;;;;18.35;2.80;;;;;;;;;;5032280;28;20048;-73
2022/10/02 01:36:07;;;;;;;14.02;2.17;;;;;;;;;;5014267;28;20514;-73
2022/10/02 01:38:33;;;;;;;13.20;2.42;;;;;;;;;;5032054;28;20069;-72
2022/10/02 01:41:02;;;;;;;10.30;2.45;;;;;;;;;;5014330;28;20133;-73
2022/10/02 01:43:33;;;;;;;13.90;2.83;;;;;;;;;;4998025;28;20037;-73
2022/10/02 01:46:10;;;;;;;13.32;2.65;;;;;;;;;;4999117;28;20042;-72
2022/10/02 01:48:37;;;;;;;14.93;2.45;;;;;;;;;;5086627;22;20068;-73
2022/10/02 01:51:26;;;;;;;12.50;2.28;;;11.80;99.90;;;;;;5071575;28;20045;-73
2022/10/02 01:54:28;;;;;;;12.63;2.40;;;12.10;99.90;;;;;;5071745;28;20036;-72
2022/10/02 01:57:05;;;;;;;12.75;2.95;;;11.80;99.90;;;;;;5051696;28;20044;-72
2022/10/02 01:59:43;;;;;;;14.30;3.00;;;11.80;99.90;;;;;;5033923;28;20049;-72
2022/10/02 02:02:25;;;;;;;11.63;2.38;;;11.70;99.90;;;;;;5033813;28;20041;-73
2022/10/02 02:04:59;;;;;;;16.75;3.33;;;11.70;99.90;;;;;;5017379;28;20412;-73
2022/10/02 02:07:27;;;;;;;8.13;2.33;;;;;;;;;;5034002;28;20037;-73
2022/10/02 02:10:27;;;;;;;12.77;2.38;;;11.50;99.90;;;;;;5034171;28;20071;-73
2022/10/02 02:13:16;;;;;;;7.25;1.90;;;11.70;99.90;;;;;;5033602;28;20044;-73
2022/10/02 02:16:09;;;;;;;12.10;2.53;;;11.80;99.90;;;;;;4977433;28;20057;-72
2022/10/02 02:18:39;;;;;;;16.48;2.65;;;11.80;99.90;;;;;;5013851;28;20045;-72
2022/10/02 02:21:11;;;;;;;17.73;2.63;;;11.70;99.90;;;;;;5031698;28;20495;-72
2022/10/02 02:23:39;;;;;;;14.48;3.22;;;11.80;99.90;;;;;;5013802;28;20049;-73
2022/10/02 02:26:11;;;;;;;18.02;3.08;;;11.70;99.90;;;;;;5031289;28;20049;-73
2022/10/02 02:28:42;;;;;;;16.25;2.33;;;12.00;99.90;;;;;;4997413;28;20029;-73
2022/10/02 02:31:11;;;;;;;10.95;2.60;;;12.00;99.90;;;;;;5031695;28;20090;-73
2022/10/02 02:33:45;;;;;;;9.35;2.55;;;11.90;99.90;;;;;;5013863;28;20038;-73
2022/10/02 02:36:16;;;;;;;14.82;2.53;;;11.90;99.90;;;;;;5031424;28;20095;-73
2022/10/02 02:38:50;;;;;;;14.48;2.83;;;11.90;99.90;;;;;;5038223;28;20047;-73
2022/10/02 02:41:23;;;;;;;13.93;2.60;;;11.80;99.90;;;;;;5033590;28;20045;-73
2022/10/02 02:43:55;;;;;;;20.15;2.70;;;11.70;99.90;;;;;;5033236;28;20574;-72
2022/10/02 02:49:33;;;;;;;14.48;2.28;;;11.80;99.90;;;;;;5033100;28;20055;-73
2022/10/02 02:52:02;;;;;;;15.27;2.60;;;12.00;99.90;;;;;;5033657;28;20048;-73
2022/10/02 02:54:44;;;;;;;12.98;2.45;;;11.80;99.90;;;;;;5016764;28;20426;-73
2022/10/02 02:57:14;;;;;;;17.58;3.47;;;12.00;99.90;;;;;;5033707;28;20044;-73
2022/10/02 02:59:43;;;;;;;9.90;2.20;;;11.90;99.90;;;;;;5054864;28;20095;-73
2022/10/02 03:02:09;;;;;;;15.60;3.05;;;;;;;;;;5036868;28;20045;-73
2022/10/02 03:04:35;;;;;;;16.73;2.70;;;;;;;;;;5054585;28;20041;-73
2022/10/02 03:07:03;;;;;;;20.13;2.50;;;12.30;99.90;;;;;;5053151;28;20041;-72
2022/10/02 03:09:32;;;;;;;14.07;3.08;;;12.20;99.90;;;;;;5054620;28;20041;-73
2022/10/02 03:12:03;;;;;;;13.13;2.60;;;12.10;99.90;;;;;;5020384;28;20048;-73
2022/10/02 03:14:41;;;;;;;16.90;2.53;;;12.30;99.90;;;;;;5035611;28;20040;-72
2022/10/02 03:17:26;;;;;;;11.40;2.92;;;12.50;99.90;;;;;;5054296;28;20076;-72
2022/10/02 03:20:27;;;;;;;10.07;3.35;;;12.10;99.90;;;;;;5036497;28;20081;-73
2022/10/02 03:23:20;;;;;;;16.67;2.38;;;12.40;99.90;;;;;;5003366;28;20049;-73
2022/10/02 03:25:58;;;;;;;18.08;3.20;;;12.20;99.90;;;;;;5035659;28;20044;-73
2022/10/02 03:28:49;;;;;;;19.75;2.70;;;12.10;99.90;;;;;;5054018;28;20441;-73
2022/10/02 03:31:17;;;;;;;12.20;2.72;;;12.10;99.90;;;;;;5036181;28;20059;-73
2022/10/02 03:33:43;;;;;;;16.98;2.38;;;12.20;99.90;;;;;;5054220;28;20496;-73
2022/10/02 03:36:11;;;;;;;12.85;2.28;;;12.30;99.90;;;;;;5054185;28;20120;-73
2022/10/02 03:38:38;;;;;;;14.07;2.67;;;12.10;99.90;;;;;;5019907;28;20497;-73
2022/10/02 03:41:04;;;;;;;15.50;2.90;;;;;;;;;;5054035;28;20045;-73
2022/10/02 03:43:30;;;;;;;19.45;2.85;;;;;;;;;;5054052;28;20087;-73
2022/10/02 03:45:56;;;;;;;12.90;2.58;;;;;;;;;;5053978;28;20041;-73
2022/10/02 03:48:22;;;;;;;18.58;2.80;;;;;;;;;;5053908;28;20124;-73
2022/10/02 03:50:51;;;;;;;7.65;2.03;;;;;;;;;;5036162;28;20072;-73
2022/10/02 03:53:20;;;;;;;16.45;2.10;;;12.00;99.90;;;;;;5053926;28;20091;-73
2022/10/02 03:55:56;;;;;;;16.70;3.17;;;12.00;99.90;;;;;;5035724;28;20090;-73
2022/10/02 03:58:22;;;;;;;12.55;2.90;;;11.80;99.90;;;;;;5036152;28;20041;-73
2022/10/02 04:01:06;;;;;;;15.13;2.78;;;11.80;99.90;;;;;;5035808;28;20047;-72
2022/10/02 04:03:36;;;;;;;13.18;2.50;;;11.80;99.90;;;;;;5035885;28;20032;-73
2022/10/02 04:06:48;;;;;;;15.95;2.65;;;11.90;99.90;;;;;;5035653;28;20033;-73
2022/10/02 04:09:23;;;;;;;15.70;2.65;;;11.80;99.90;;;;;;5001671;28;20084;-73
2022/10/02 04:11:58;;;;;;;11.98;2.25;;;11.90;99.90;;;;;;5035286;28;20045;-73
2022/10/02 04:14:40;;;;;;;21.40;3.58;;;12.00;99.90;;;;;;5035244;28;20041;-73
2022/10/02 04:17:12;;;;;;;9.55;2.00;;;12.00;99.90;;;;;;5053375;28;20103;-73
2022/10/02 04:20:01;;;;;;;16.40;3.10;;;11.80;99.90;;;;;;5053404;28;20441;-73
2022/10/02 04:22:40;;;;;;;13.32;2.05;;;12.00;99.90;;;;;;5035284;28;20037;-73
2022/10/02 04:25:18;;;;;;;14.65;2.30;;;11.70;99.90;;;;;;5018464;28;20037;-73
2022/10/02 04:28:06;;;;;;;11.70;2.63;;;11.70;99.90;;;;;;5035020;28;20544;-73
2022/10/02 04:30:32;;;;;;;17.25;2.20;;;;;;;;;;5035534;28;20052;-72
2022/10/02 04:33:12;;;;;;;16.65;2.55;;;11.70;99.90;;;;;;5035316;28;20130;-73
2022/10/02 04:36:09;;;;;;;15.75;2.60;;;11.90;99.90;;;;;;5034860;28;20084;-73
2022/10/02 04:39:07;;;;;;;18.30;3.35;;;11.90;99.90;;;;;;5035171;28;20098;-73
2022/10/02 04:41:41;;;;;;;15.45;2.50;;;11.80;99.90;;;;;;5035123;28;20044;-73
2022/10/02 04:44:12;;;;;;;18.38;2.30;;;11.70;99.90;;;;;;5034757;28;20542;-72
2022/10/02 04:47:01;;;;;;;14.75;2.65;;;11.80;99.90;;;;;;5034973;28;20069;-73
2022/10/02 04:49:55;;;;;;;17.13;2.75;;;11.70;99.90;;;;;;5034915;28;20158;-73
2022/10/02 04:52:32;;;;;;;17.73;3.20;;;11.40;99.90;;;;;;5051169;28;20052;-73
2022/10/02 04:55:40;;;;;;;18.55;2.85;;;11.50;99.90;;;;;;5054458;28;20040;-73
2022/10/02 04:58:27;;;;;;;21.85;3.30;;;11.50;99.90;;;;;;5035724;28;20525;-73
2022/10/02 05:01:28;;;;;;;19.70;2.60;;;11.60;99.90;;;;;;5067581;28;20048;-73
2022/10/02 05:04:26;;;;;;;21.52;3.08;;;11.50;99.90;;;;;;5029512;28;20469;-72
2022/10/02 05:06:52;;;;;;;12.90;3.22;;;;;;;;;;5002593;28;20124;-73
2022/10/02 05:09:24;;;;;;;17.42;2.75;;;;;;;;;;5052235;28;20108;-73
2022/10/02 05:12:10;;;;;;;16.98;2.45;;;11.30;99.90;;;;;;5017021;28;20521;-73
2022/10/02 05:14:36;;;;;;;18.67;3.95;;;;;;;;;;5041669;28;20045;-72
2022/10/02 05:17:21;;;;;;;13.15;2.85;;;11.50;99.90;;;;;;5042292;28;20032;-72
2022/10/02 05:20:05;;;;;;;16.27;3.40;;;11.40;99.90;;;;;;5043835;28;20080;-72
2022/10/02 05:22:43;;;;;;;15.98;3.03;;;11.40;99.90;;;;;;5040724;28;20051;-72
2022/10/02 05:25:40;;;;;;;22.35;3.72;;;11.30;99.90;;;;;;5042777;28;20483;-73
2022/10/02 05:28:33;;;;;;;14.27;2.40;;;11.30;99.90;;;;;;5026434;28;20139;-72
2022/10/02 05:31:05;;;;;;;19.55;3.47;;;11.40;99.90;;;;;;5060684;28;20142;-73
2022/10/02 05:33:47;;;;;;;15.05;2.80;;;11.30;99.90;;;;;;5039009;28;20055;-73
2022/10/02 05:36:41;;;;;;;16.98;2.83;;;11.40;99.90;;;;;;5033275;28;20045;-73
2022/10/02 05:39:26;;;;;;;18.42;2.75;;;11.30;99.90;;;;;;5032829;28;20061;-73
2022/10/02 05:42:03;;;;;;;14.55;2.17;;;11.40;99.90;;;;;;5014228;28;20063;-73
2022/10/02 05:44:37;;;;;;;16.30;2.35;;;11.50;99.90;;;;;;5030205;28;20499;-73
2022/10/02 05:47:17;;;;;;;12.13;2.25;;;11.60;99.90;;;;;;5032388;28;20118;-73
2022/10/02 05:50:12;;;;;;;16.60;2.80;;;11.50;99.90;;;;;;5016100;28;20033;-71
2022/10/02 05:53:03;;;;;;;16.08;2.30;;;11.60;99.90;;;;;;5049438;28;20037;-72
2022/10/02 05:55:42;;;;;;;14.68;3.13;;;11.50;99.90;;;;;;5047728;28;20041;-72
2022/10/02 05:58:37;;;;;;;19.27;3.97;;;11.40;99.90;;;;;;5027086;28;20048;-72
2022/10/02 06:01:13;;;;;;;15.63;2.55;;;11.50;99.90;;;;;;5031808;28;20391;-73
2022/10/02 06:03:52;;;;;;;12.05;2.42;;;11.50;99.90;;;;;;5032732;28;20028;-72
2022/10/02 06:06:40;;;;;;;15.70;2.30;;;11.30;99.90;;;;;;5028608;28;20075;-73
2022/10/02 06:09:14;;;;;;;18.23;2.55;;;11.30;99.90;;;;;;5050077;28;20033;-72
2022/10/02 06:12:01;;;;;;;9.02;2.45;;;11.50;99.90;;;;;;5032388;28;20047;-72
2022/10/02 06:14:34;;;;;;;14.43;3.13;;;11.50;99.90;;;;;;5032039;28;20037;-72
2022/10/02 06:17:06;;;;;;;11.95;2.78;;;11.50;99.90;;;;;;5050377;28;20112;-72
2022/10/02 06:19:32;;;;;;;14.35;2.50;;;;;;;;;;5048444;28;20387;-72
2022/10/02 06:22:18;;;;;;;14.10;2.60;;;11.60;99.90;;;;;;5032613;28;20498;-72
2022/10/02 06:24:44;;;;;;;12.85;2.35;;;;;;;;;;5014706;28;20112;-72
2022/10/02 06:27:17;;;;;;;14.63;2.63;;;11.50;99.90;;;;;;5024663;28;20061;-72
2022/10/02 06:29:50;;;;;;;10.02;3.13;;;11.90;99.90;;;;;;5064667;28;20125;-72
2022/10/02 06:32:44;;;;;;;21.92;2.55;;;12.00;99.90;;;;;;5045968;28;20426;-72
2022/10/02 06:35:15;;;;;;;9.70;2.03;;;12.00;99.90;;;;;;5055138;28;20037;-72
2022/10/02 06:38:15;;;;;;;19.95;2.78;;;11.90;99.90;;;;;;5059725;28;20056;-72
2022/10/02 06:40:50;;;;;;;15.73;3.53;;;11.90;99.90;;;;;;5040476;28;20140;-72
2022/10/02 06:43:21;;;;;;;20.63;3.53;;;12.10;99.90;;;;;;5055943;28;20040;-74
2022/10/02 06:46:21;;;;;;;13.73;3.17;;;12.10;99.90;;;;;;5074929;28;20042;-73
2022/10/02 06:48:58;;;;;;;16.40;2.15;;;12.20;99.90;;;;;;5040965;28;20477;-74
2022/10/02 06:51:33;;;;;;;13.45;2.15;;;12.40;99.90;;;;;;5037123;28;20045;-74
2022/10/02 06:54:26;;;;;;;10.48;2.33;;;12.30;99.90;;;;;;5036225;28;20045;-73
2022/10/02 06:56:58;;;;;;;15.50;2.83;;;12.30;99.90;;;;;;5042780;28;20064;-74
2022/10/02 06:59:31;;;;;;;13.05;2.80;;;12.20;99.90;;;;;;5027097;28;20107;-73
2022/10/02 07:02:43;;;;;;;12.35;2.72;;;12.10;99.90;;;;;;5032214;28;20053;-74
2022/10/02 07:05:09;;;;;;;18.23;3.40;;;;;;;;;;5049945;28;20048;-73
2022/10/02 07:07:59;;;;;;;15.63;2.45;;;12.00;99.90;;;;;;5050793;28;20403;-73
2022/10/02 07:10:25;;;;;;;18.30;3.13;;;;;;;;;;5049037;28;20549;-73
2022/10/02 07:13:06;;;;;;;17.70;3.40;;;12.40;99.90;;;;;;5024775;28;20049;-74
2022/10/02 07:15:53;;;;;;;10.40;2.22;;;12.40;99.90;;;;;;5037355;28;20407;-74
2022/10/02 07:18:28;;;;;;;16.83;3.13;;;12.70;99.90;;;;;;5037632;28;20182;-74
2022/10/02 07:21:18;;;;;;;11.05;2.28;;;12.80;99.90;;;;;;5035629;28;20060;-74
2022/10/02 07:24:03;;;;;;;13.85;2.17;;;12.80;99.90;;;;;;5021962;28;20029;-73
2022/10/02 07:27:22;;;;;;;14.30;3.17;;;12.70;99.90;;;;;;5033342;28;20041;-74
2022/10/02 07:30:01;;;;;;;12.18;2.47;;;12.70;99.90;;;;;;4980679;28;20041;-74
2022/10/02 07:32:40;;;;;;;12.48;2.40;;;13.10;99.90;;;;;;5028351;28;20586;-73
2022/10/02 07:35:14;;;;;;;10.88;2.40;;;12.80;99.90;;;;;;5032105;28;20041;-74
2022/10/02 07:38:12;;;;;;;12.73;2.97;;;12.70;99.90;;;;;;5047593;28;20041;-73
2022/10/02 07:40:53;;;;;;;16.25;2.85;;;13.00;99.90;;;;;;4999616;28;20049;-73
2022/10/02 07:43:34;;;;;;;9.55;2.35;;;13.00;99.90;;;;;;5032085;28;20044;-73
2022/10/02 07:46:14;;;;;;;12.10;2.60;;;13.40;99.90;;;;;;5039508;28;20133;-74
2022/10/02 07:48:40;;;;;;;10.15;2.35;;;;;;;;;;5076183;22;20421;-74
2022/10/02 07:51:45;;;;;;;14.68;2.78;;;;;;;;;;5073714;28;20514;-74
2022/10/02 07:53:55;;;;;;;16.63;4.13;;;13.50;99.90;;;;;;5053459;28;20045;-74
2022/10/02 07:56:22;;;;;;;15.25;3.25;;;13.80;99.90;;;;;;5054042;28;20040;-74
2022/10/02 07:58:55;;;;;;;15.32;3.20;;;13.90;99.90;;;;;;5049698;28;20036;-75
2022/10/02 08:01:25;;;;;;;17.95;3.33;;;14.00;99.90;;;;;;5061334;28;20966;-75
2022/10/02 08:03:54;;;;;;;11.48;2.78;;;13.90;99.90;;;;;;5058232;28;20037;-75
2022/10/02 08:06:20;;;;;;;23.95;4.22;;;;;;;;;;5066838;28;20032;-75
2022/10/02 08:08:57;;;;;;;16.38;4.43;;;13.90;99.90;;;;;;5070636;28;20097;-75
2022/10/02 08:11:31;;;;;;;23.30;7.15;;;13.80;99.90;;;;;;5065081;28;20036;-75
2022/10/02 08:14:07;;;;;;;20.27;8.82;;;14.00;99.90;;;;;;5070276;28;20083;-75
2022/10/02 08:16:39;;;;;;;17.48;7.00;;;13.80;99.90;;;;;;5078945;28;20047;-75
2022/10/02 08:19:17;;;;;;;15.68;6.20;;;13.90;99.90;;;;;;5068765;28;20082;-75
2022/10/02 08:21:49;;;;;;;16.35;5.18;;;13.80;99.90;;;;;;5074837;28;20035;-75
2022/10/02 08:24:21;;;;;;;15.43;4.82;;;14.00;99.90;;;;;;5037187;28;20041;-75
2022/10/02 08:26:59;;;;;;;15.18;3.97;;;14.10;99.90;;;;;;5072379;28;20564;-74
2022/10/02 08:29:52;;;;;;;18.25;5.35;;;14.30;99.90;;;;;;5072026;28;20135;-75
2022/10/02 08:32:18;;;;;;;15.77;3.65;;;;;;;;;;5068853;28;20162;-74
2022/10/02 08:34:44;;;;;;;17.40;3.10;;;;;;;;;;5069243;28;20155;-74
2022/10/02 08:37:20;;;;;;;12.63;2.75;;;14.70;99.90;;;;;;5073867;28;20044;-75
2022/10/02 08:40:41;;;;;;;16.80;4.15;;;14.50;99.90;;;;;;5067518;28;20045;-74
2022/10/02 08:43:31;;;;;;;16.23;2.97;;;14.50;99.90;;;;;;5039689;28;20480;-75
2022/10/02 08:46:09;;;;;;;18.50;4.03;;;14.60;99.90;;;;;;5055466;28;20124;-75
2022/10/02 08:48:48;;;;;;;21.00;3.50;;;14.50;99.90;;;;;;5071594;28;20039;-74
2022/10/02 08:51:49;;;;;;;24.63;5.25;;;14.80;99.90;;;;;;5041588;28;20126;-74
2022/10/02 08:55:16;;;;;;;15.75;4.32;;;14.90;99.90;;;;;;5059699;28;20115;-75
2022/10/02 08:58:03;;;;;;;12.95;3.72;;;14.80;99.90;;;;;;5034069;28;20045;-75
2022/10/02 09:00:56;;;;;;;17.67;3.75;;;15.00;99.90;;;;;;5068240;28;20110;-75
2022/10/02 09:03:47;;;;;;;17.10;3.75;;;15.10;99.90;;;;;;5079901;28;20149;-75
2022/10/02 09:06:49;;;;;;;20.40;3.20;;;15.30;99.90;;;;;;5078501;28;20036;-75
2022/10/02 09:09:51;;;;;;;14.85;3.00;;;15.70;99.90;;;;;;5072848;28;20040;-75
2022/10/02 09:12:46;;;;;;;15.40;3.13;;;15.60;99.90;;;;;;5037158;28;20044;-74
2022/10/02 09:15:22;;;;;;;16.02;3.78;;;15.10;99.90;;;;;;5072514;28;20037;-73
2022/10/02 09:18:13;;;;;;;17.73;3.05;;;15.00;99.90;;;;;;5077517;28;20037;-72
2022/10/02 09:20:59;;;;;;;13.07;3.60;;;14.80;99.90;;;;;;5080266;28;20051;-74
2022/10/02 09:24:06;;;;;;;24.15;5.55;;;14.70;99.90;;;;;;5060203;28;20037;-74
2022/10/02 09:26:45;;;;;;;18.27;3.75;;;14.60;99.90;;;;;;5031462;28;20071;-74
2022/10/02 09:29:33;;;;;;;17.63;3.50;;;14.60;99.90;;;;;;5056022;28;20052;-73
2022/10/02 09:32:43;;;;;;;13.43;3.08;;;14.80;99.90;;;;;;5065466;28;20048;-73
2022/10/02 09:35:47;;;;;;;18.50;3.17;;;14.90;99.90;;;;;;5052666;28;20653;-73
2022/10/02 09:38:43;;;;;;;16.10;3.63;;;15.50;99.90;;;;;;5051907;28;20044;-73
2022/10/02 09:41:26;;;;;;;21.77;4.30;;;15.60;99.90;;;;;;5055905;28;20049;-73
2022/10/02 09:44:02;;;;;;;17.25;3.72;;;15.50;99.90;;;;;;5052034;28;20102;-73
2022/10/02 09:46:29;;;;;;;13.00;3.50;;;;;;;;;;5068005;28;20048;-73
2022/10/02 09:49:12;;;;;;;15.00;2.85;;;15.90;99.90;;;;;;5068197;28;20032;-74
2022/10/02 09:51:56;;;;;;;;;;;16.00;99.90;;;;;;5070809;28;20032;-73
2022/10/02 09:54:41;;;;;;;;;;;16.10;99.90;;;;;;5069095;28;19916;-73
2022/10/02 09:57:14;;;;;;;14.00;2.53;;;16.20;99.90;;;;;;5061282;28;19916;-73
2022/10/02 09:59:46;;;;;;;12.32;2.53;;;16.00;99.90;;;;;;5069239;28;20051;-73
2022/10/02 10:02:19;;;;;;;18.05;3.35;;;16.30;99.90;;;;;;5070387;28;20045;-73
2022/10/02 10:04:45;;;;;;;10.98;2.92;;;;;;;;;;5067628;28;20094;-73
2022/10/02 10:07:48;;;;;;;15.40;2.72;;;16.60;99.90;;;;;;5064394;28;20039;-74
2022/10/02 10:10:37;;;;;;;13.57;2.35;;;16.30;99.90;;;;;;5040359;28;20398;-74
2022/10/02 10:13:31;;;;;;;11.80;2.83;;;16.50;99.90;;;;;;5041101;28;20040;-74
2022/10/02 10:16:21;;;;;;;13.52;2.72;;;16.70;99.90;;;;;;5040522;28;20036;-73
2022/10/02 10:19:12;;;;;;;9.82;2.78;;;16.80;99.90;;;;;;5068291;28;20593;-74
2022/10/02 10:22:16;;;;;;;15.38;2.95;;;17.20;99.90;;;;;;5063693;28;20052;-74
2022/10/02 10:25:14;;;;;;;16.48;5.07;;;16.90;99.90;;;;;;5061595;28;20040;-74
2022/10/02 10:28:04;;;;;;;13.43;2.78;;;16.70;99.90;;;;;;5073171;28;20051;-74
2022/10/02 10:30:49;;;;;;;18.67;3.38;;;16.60;99.90;;;;;;5061890;28;20041;-74
2022/10/02 10:33:33;;;;;;;17.20;4.32;;;16.60;99.90;;;;;;5060328;28;20037;-74
2022/10/02 10:39:47;;;;;;;14.13;4.25;;;17.10;99.90;;;;;;5065331;28;20051;-74
2022/10/02 10:42:35;;;;;;;10.80;3.80;;;16.90;99.90;;;;;;5068393;28;20033;-74
2022/10/02 10:45:17;;;;;;;13.15;3.50;;;17.00;99.90;;;;;;5067097;28;20040;-74
2022/10/02 10:48:10;;;;;;;14.10;3.65;;;16.60;99.90;;;;;;5063887;28;20126;-74
2022/10/02 10:50:52;;;;;;;18.17;3.67;;;16.50;99.90;;;;;;5048003;28;20124;-74
2022/10/02 10:53:21;;;;;;;15.45;3.30;;;16.30;99.90;;;;;;5067975;28;20040;-74
2022/10/02 10:56:06;;;;;;;18.63;3.25;;;15.90;99.90;;;;;;5068780;28;20044;-75
2022/10/02 10:59:11;;;;;;;13.25;2.72;;;16.00;99.90;;;;;;5068358;28;20052;-75
2022/10/02 11:01:59;;;;;;;16.55;3.15;;;15.90;99.90;;;;;;5068677;28;20098;-74
2022/10/02 11:04:57;;;;;;;22.92;3.22;;;15.90;99.90;;;;;;5067115;28;20037;-75
2022/10/02 11:07:34;;;;;;;11.38;2.75;;;16.50;99.90;;;;;;5069249;28;20497;-74
2022/10/02 11:10:32;;;;;;;14.43;3.38;;;15.90;99.90;;;;;;5051930;28;20036;-74
2022/10/02 11:13:08;;;;;;;14.70;3.33;;;16.00;99.90;;;;;;5043859;28;20491;-73
2022/10/02 11:15:55;;;;;;;11.63;2.83;;;16.10;99.90;;;;;;5068465;28;20419;-76
2022/10/02 11:18:55;;;;;;;7.88;1.90;;;16.30;99.90;;;;;;5068490;28;20048;-75
2022/10/02 11:21:40;;;;;;;16.13;3.20;;;16.60;99.90;;;;;;5072178;28;20044;-75
2022/10/02 11:24:36;;;;;;;10.98;1.83;;;16.90;99.90;;;;;;5071163;28;20379;-73
2022/10/02 11:27:19;;;;;;;13.80;2.92;;;16.90;99.90;;;;;;5058109;28;20037;-74
2022/10/02 11:30:08;;;;;;;9.20;2.47;;;17.10;99.90;;;;;;5069070;28;20041;-74
2022/10/02 11:32:34;;;;;;;14.35;2.90;;;;;;;;;;5074001;28;20051;-74
2022/10/02 11:35:09;;;;;;;10.57;2.15;;;17.10;99.90;;;;;;5070903;28;20045;-74
2022/10/02 11:38:02;;;;;;;8.07;2.22;;;17.30;99.90;;;;;;5073049;28;20040;-75
2022/10/02 11:40:52;;;;;;;14.43;2.60;;;17.40;99.90;;;;;;5073143;28;20040;-75
2022/10/02 11:43:30;;;;;;;9.38;2.50;;;17.40;99.90;;;;;;5056570;28;20048;-75
2022/10/02 11:46:07;;;;;;;8.90;2.08;;;17.10;99.90;;;;;;5052708;28;20051;-75
2022/10/02 11:48:45;;;;;;;10.40;2.45;;;16.70;99.90;;;;;;5052884;28;20040;-75
2022/10/02 11:51:29;;;;;;;12.32;3.00;;;16.50;99.90;;;;;;5053103;28;20040;-75
2022/10/02 11:54:09;;;;;;;12.75;2.38;;;16.10;99.90;;;;;;5053884;28;20041;-75
2022/10/02 11:56:48;;;;;;;18.55;2.40;;;16.20;99.90;;;;;;5036443;28;20490;-74
2022/10/02 11:59:17;;;;;;;17.13;2.70;;;16.00;99.90;;;;;;5063440;28;20509;-73
2022/10/02 12:02:00;;;;;;;11.40;2.40;;;15.90;99.90;;;;;;5073966;28;20048;-74
2022/10/02 12:04:51;;;;;;;11.88;2.00;;;16.30;99.90;;;;;;5072179;28;20404;-75
2022/10/02 12:07:34;;;;;;;14.02;2.47;;;16.20;99.90;;;;;;5072428;28;20115;-75
2022/10/02 12:10:18;;;;;;;;;;;16.30;99.90;;;;;;5073238;28;20393;-74
2022/10/02 12:13:06;;;;;;;17.05;3.33;;;16.10;99.90;;;;;;5073782;28;19916;-74
2022/10/02 12:15:33;;;;;;;12.60;2.67;;;;;;;;;;5073174;28;20048;-74
2022/10/02 12:18:04;;;;;;;11.63;2.33;;;16.50;99.90;;;;;;5073658;28;20048;-74
2022/10/02 12:27:08;;;;;;;10.45;2.08;;;17.10;99.90;;;;;;5073458;28;20041;-75
2022/10/02 12:29:40;;;;;;;10.10;1.70;;;17.30;99.90;;;;;;5072685;28;20048;-75
2022/10/02 12:32:16;;;;;;;11.82;2.60;;;17.50;99.90;;;;;;5058867;28;20090;-75
2022/10/02 12:34:42;;;;;;;14.30;1.90;;;17.60;99.90;;;;;;5053430;28;20044;-74
2022/10/02 12:37:18;;;;;;;14.05;2.38;;;17.40;99.90;;;;;;5052033;28;20205;-74
2022/10/02 12:40:20;;;;;;;14.55;2.50;;;17.30;99.90;;;;;;5052330;28;20584;-75
2022/10/02 12:43:11;;;;;;;18.17;3.95;;;16.90;99.90;;;;;;5052275;28;20407;-75
2022/10/02 12:45:53;;;;;;;15.70;2.20;;;16.70;99.90;;;;;;5051838;28;20083;-74
2022/10/02 12:48:27;;;;;;;13.00;2.63;;;16.50;99.90;;;;;;5036221;28;20127;-75
2022/10/02 12:51:33;;;;;;;10.80;3.08;;;16.40;99.90;;;;;;5051777;28;20781;-75
2022/10/02 12:54:21;;;;;;;7.13;2.40;;;16.40;99.90;;;;;;5051401;28;20048;-74
2022/10/02 12:57:50;;;;;;;14.05;3.35;;;16.40;99.90;;;;;;5051625;28;20041;-74
2022/10/02 13:00:22;;;;;;;14.32;2.42;;;16.20;99.90;;;;;;5059426;28;20402;-74
2022/10/02 13:02:58;;;;;;;14.80;2.55;;;16.00;99.90;;;;;;5010204;28;20052;-75
2022/10/02 13:05:39;;;;;;;17.55;3.45;;;16.00;99.90;;;;;;5054697;28;20587;-74
2022/10/02 13:08:25;;;;;;;10.05;2.30;;;16.10;99.90;;;;;;5065826;28;20506;-75
2022/10/02 13:11:13;;;;;;;18.42;2.65;;;16.00;99.90;;;;;;5071350;28;20037;-74
2022/10/02 13:14:16;;;;;;;12.30;2.42;;;16.50;99.90;;;;;;5072745;28;20458;-75
2022/10/02 13:16:53;;;;;;;;;;;16.40;99.90;;;;;;5071892;28;20406;-74
2022/10/02 13:19:39;;;;;;;15.02;2.47;;;17.00;99.90;;;;;;5054412;28;20302;-74
2022/10/02 13:22:18;;;;;;;11.18;2.10;;;17.10;99.90;;;;;;5035872;28;20125;-74
2022/10/02 13:25:17;;;;;;;14.30;2.50;;;17.30;99.90;;;;;;5050837;28;20044;-73
2022/10/02 13:27:55;;;;;;;12.65;2.60;;;17.00;99.90;;;;;;5034600;28;20044;-75
2022/10/02 13:30:22;;;;;;;11.25;2.58;;;16.70;99.90;;;;;;5051747;28;20091;-73
2022/10/02 13:33:13;;;;;;;11.48;2.22;;;16.60;99.90;;;;;;5072338;28;20040;-74
2022/10/02 13:35:48;;;;;;;10.93;1.92;;;16.60;99.90;;;;;;5070888;28;20082;-74
2022/10/02 13:38:21;;;;;;;10.70;1.80;;;16.60;99.90;;;;;;5057343;28;20041;-75
2022/10/02 13:41:12;;;;;;;11.23;2.35;;;16.40;99.90;;;;;;5050736;28;20632;-75
2022/10/02 13:43:56;;;;;;;10.73;2.10;;;16.60;99.90;;;;;;5051156;28;20033;-75
2022/10/02 13:46:40;;;;;;;14.65;2.85;;;16.60;99.90;;;;;;5050806;28;20033;-75
2022/10/02 13:49:31;;;;;;;10.50;2.15;;;16.60;99.90;;;;;;5051572;28;20037;-76
2022/10/02 13:52:23;;;;;;;16.15;2.97;;;17.00;99.90;;;;;;5050895;28;20477;-76
2022/10/02 13:55:09;;;;;;;13.02;2.92;;;16.60;99.90;;;;;;5064706;28;20044;-75
2022/10/02 13:57:59;;;;;;;22.10;3.60;;;16.80;99.90;;;;;;5070598;28;20094;-74
2022/10/02 14:00:37;;;;;;;18.42;2.25;;;16.50;99.90;;;;;;5053124;28;20041;-75
2022/10/02 14:03:10;;;;;;;13.82;2.55;;;16.30;99.90;;;;;;5070385;28;20045;-75
2022/10/02 14:05:50;;;;;;;14.18;2.90;;;16.70;99.90;;;;;;5070369;28;20162;-75
2022/10/02 14:08:33;;;;;;;13.45;2.65;;;16.50;99.90;;;;;;5070412;28;20040;-76
2022/10/02 14:11:42;;;;;;;8.45;2.08;;;16.50;99.90;;;;;;5071407;28;20079;-75
2022/10/02 14:14:27;;;;;;;12.75;2.60;;;16.40;99.90;;;;;;5071466;28;20131;-75
2022/10/02 14:17:10;;;;;;;12.27;2.05;;;16.60;99.90;;;;;;5070284;28;20041;-75
2022/10/02 14:19:58;;;;;;;9.30;2.67;;;16.70;99.90;;;;;;5053670;28;20083;-75
2022/10/02 14:22:52;;;;;;;12.25;2.67;;;16.70;99.90;;;;;;5071619;28;20041;-75